Time;durP1;ratioP1;P1;durP2;ratioP2;P2;SDS_P1;SDS_P2;PMS_P1;PMS_P2;Temp;Humidity;BMP_temperature;BMP_pressure;BME280_temperature;BME280_humidity;BME280_pressure;Samples;Min_cycle;Max_cycle;Signal;HPM_P1;HPM_P2
2021/07/03 00:02:00;;;;;;;31.40;24.07;;;;;;;15.04;100.00;101590.75;5247314;22;20057;-67
2021/07/03 00:04:31;;;;;;;31.92;25.10;;;;;;;14.99;100.00;101602.66;5228072;28;20045;-67
2021/07/03 00:07:03;;;;;;;30.15;24.63;;;;;;;15.00;100.00;101589.34;5235024;28;20014;-67
2021/07/03 00:09:36;;;;;;;28.90;22.92;;;;;;;14.98;100.00;101585.19;5233632;28;20060;-67
2021/07/03 00:12:09;;;;;;;28.98;23.80;;;;;;;14.93;100.00;101592.69;5234487;28;20018;-66
2021/07/03 00:14:40;;;;;;;29.13;22.65;;;;;;;14.89;100.00;101600.06;5234944;28;20120;-66
2021/07/03 00:17:11;;;;;;;28.20;22.00;;;;;;;14.81;100.00;101595.47;5234186;28;20112;-67
2021/07/03 00:19:43;;;;;;;28.67;23.48;;;;;;;14.77;100.00;101588.81;5231979;28;20029;-67
2021/07/03 00:22:14;;;;;;;30.05;23.05;;;;;;;14.79;100.00;101593.94;5234172;28;20068;-67
2021/07/03 00:24:45;;;;;;;28.85;22.05;;;;;;;14.71;100.00;101589.38;5234372;28;20578;-67
2021/07/03 00:27:17;;;;;;;29.63;21.15;;;;;;;14.73;100.00;101591.84;5233346;28;20486;-67
2021/07/03 00:29:48;;;;;;;31.70;24.00;;;;;;;14.66;100.00;101585.47;5233438;28;20057;-66
2021/07/03 00:32:19;;;;;;;26.27;22.10;;;;;;;14.66;100.00;101593.38;5233754;28;20028;-67
2021/07/03 00:34:51;;;;;;;25.27;21.15;;;;;;;14.60;100.00;101586.84;5234243;28;20116;-67
2021/07/03 00:37:22;;;;;;;27.38;22.00;;;;;;;14.55;100.00;101581.19;5233211;28;20498;-67
2021/07/03 00:39:55;;;;;;;30.20;24.10;;;;;;;14.55;100.00;101582.00;5231630;28;20025;-67
2021/07/03 00:42:26;;;;;;;28.10;22.60;;;;;;;14.57;100.00;101576.59;5234499;28;20112;-67
2021/07/03 00:44:58;;;;;;;28.10;22.55;;;;;;;14.49;100.00;101577.28;5233145;28;20039;-67
2021/07/03 00:47:29;;;;;;;28.83;22.90;;;;;;;14.45;100.00;101575.03;5233679;28;20033;-67
2021/07/03 00:50:03;;;;;;;29.70;22.85;;;;;;;14.42;100.00;101581.38;5234381;28;20037;-67
2021/07/03 00:52:36;;;;;;;27.73;22.30;;;;;;;14.33;100.00;101569.88;5233236;28;20029;-67
2021/07/03 00:55:07;;;;;;;30.23;24.13;;;;;;;14.36;100.00;101576.69;5232989;28;20029;-67
2021/07/03 00:57:41;;;;;;;31.17;24.30;;;;;;;14.36;100.00;101580.16;5232632;28;20505;-67
2021/07/03 01:00:14;;;;;;;28.25;23.83;;;;;;;14.32;100.00;101584.03;5232911;28;20036;-67
2021/07/03 01:02:46;;;;;;;31.85;23.85;;;;;;;14.26;100.00;101579.28;5233777;28;20064;-67
2021/07/03 01:05:17;;;;;;;29.88;23.25;;;;;;;14.26;100.00;101576.66;5232216;28;20066;-67
2021/07/03 01:07:49;;;;;;;29.45;23.95;;;;;;;14.29;100.00;101576.38;5234017;28;20091;-66
2021/07/03 01:10:25;;;;;;;34.50;27.02;;;;;;;14.32;100.00;101585.84;5232105;28;20032;-66
2021/07/03 01:12:57;;;;;;;32.50;24.83;;;;;;;14.27;100.00;101580.94;5230263;28;20044;-67
2021/07/03 01:15:28;;;;;;;35.55;28.10;;;;;;;14.27;100.00;101588.03;5230903;28;20034;-67
2021/07/03 01:17:59;;;;;;;37.80;28.42;;;;;;;14.28;100.00;101581.78;5233551;28;20025;-67
2021/07/03 01:20:31;;;;;;;37.05;28.75;;;;;;;14.25;100.00;101577.63;5232653;28;20284;-67
2021/07/03 01:23:02;;;;;;;38.72;30.33;;;;;;;14.19;100.00;101567.63;5230030;28;20411;-66
2021/07/03 01:25:33;;;;;;;37.00;28.38;;;;;;;14.27;100.00;101585.41;5231100;28;20033;-67
2021/07/03 01:28:06;;;;;;;35.65;28.20;;;;;;;14.18;100.00;101576.50;5231933;28;20033;-67
2021/07/03 01:30:37;;;;;;;41.47;30.77;;;;;;;14.20;100.00;101574.56;5231368;28;20047;-67
2021/07/03 01:33:08;;;;;;;35.15;28.75;;;;;;;14.23;100.00;101579.56;5233140;28;20029;-67
2021/07/03 01:35:41;;;;;;;37.13;28.00;;;;;;;14.19;100.00;101574.69;5231471;28;20164;-67
2021/07/03 01:38:21;;;;;;;34.13;28.05;;;;;;;14.24;100.00;101581.22;5232039;28;20561;-67
2021/07/03 01:40:53;;;;;;;42.20;31.13;;;;;;;14.29;100.00;101581.66;5231485;28;20021;-67
2021/07/03 01:43:27;;;;;;;38.97;30.85;;;;;;;14.17;100.00;101574.84;5233140;28;20031;-66
2021/07/03 01:45:58;;;;;;;39.95;29.90;;;;;;;14.19;100.00;101578.16;5232768;28;20438;-67
2021/07/03 01:48:31;;;;;;;39.80;30.05;;;;;;;14.14;100.00;101579.56;5232752;28;20030;-66
2021/07/03 01:51:02;;;;;;;40.13;29.58;;;;;;;14.11;100.00;101580.66;5232675;28;20040;-67
2021/07/03 01:53:34;;;;;;;37.92;30.08;;;;;;;14.07;100.00;101579.25;5233240;28;20496;-67
2021/07/03 01:56:07;;;;;;;41.05;30.08;;;;;;;14.07;100.00;101584.53;5231578;28;20033;-67
2021/07/03 01:58:38;;;;;;;40.42;30.40;;;;;;;14.06;100.00;101575.78;5233746;28;20032;-67
2021/07/03 02:01:10;;;;;;;38.00;30.65;;;;;;;14.07;100.00;101581.88;5231403;28;20045;-67
2021/07/03 02:03:41;;;;;;;38.80;29.70;;;;;;;14.11;100.00;101573.56;5231372;28;20022;-67
2021/07/03 02:06:12;;;;;;;41.88;31.88;;;;;;;14.09;100.00;101567.63;5231598;28;20501;-67
2021/07/03 02:08:44;;;;;;;38.67;30.77;;;;;;;14.04;100.00;101575.06;5232901;28;20025;-67
2021/07/03 02:11:15;;;;;;;41.10;32.50;;;;;;;14.02;100.00;101573.56;5232883;28;20037;-67
2021/07/03 02:13:47;;;;;;;40.63;32.22;;;;;;;14.02;100.00;101568.31;5231676;28;20445;-67
2021/07/03 02:16:18;;;;;;;40.45;31.65;;;;;;;13.97;100.00;101562.56;5231985;28;20100;-67
2021/07/03 02:18:49;;;;;;;44.90;34.05;;;;;;;13.96;100.00;101553.84;5232573;28;20125;-67
2021/07/03 02:21:20;;;;;;;45.10;33.90;;;;;;;13.99;100.00;101550.94;5229022;28;20025;-67
2021/07/03 02:23:52;;;;;;;42.78;32.45;;;;;;;13.97;100.00;101552.03;5230685;28;20021;-67
2021/07/03 02:26:25;;;;;;;42.30;32.70;;;;;;;14.01;100.00;101542.91;5230986;28;20035;-67
2021/07/03 02:28:56;;;;;;;;;;;;;;;14.26;100.00;101547.66;5227879;28;20128;-67
2021/07/03 02:31:28;;;;;;;40.50;31.33;;;;;;;14.05;100.00;101544.28;5231975;28;20659;-66
2021/07/03 02:34:00;;;;;;;45.45;34.25;;;;;;;14.03;100.00;101543.59;5230527;28;20030;-67
2021/07/03 02:36:31;;;;;;;46.72;35.10;;;;;;;14.03;100.00;101539.16;5229897;28;20439;-67
2021/07/03 02:39:04;;;;;;;49.40;35.78;;;;;;;14.06;100.00;101540.72;5231825;28;20091;-67
2021/07/03 02:41:35;;;;;;;49.13;37.55;;;;;;;14.06;100.00;101535.44;5233471;28;20033;-66
2021/07/03 02:44:06;;;;;;;50.50;36.45;;;;;;;14.02;100.00;101534.88;5233854;28;20501;-67
2021/07/03 02:46:37;;;;;;;45.67;37.47;;;;;;;14.04;100.00;101532.09;5235631;28;20616;-67
2021/07/03 02:49:09;;;;;;;49.75;36.72;;;;;;;14.03;100.00;101533.06;5235850;28;20029;-67
2021/07/03 02:51:40;;;;;;;43.95;35.58;;;;;;;14.05;100.00;101526.72;5236230;28;20025;-67
2021/07/03 02:54:11;;;;;;;48.90;36.67;;;;;;;14.03;100.00;101526.00;5235883;28;20018;-67
2021/07/03 02:56:43;;;;;;;47.05;36.30;;;;;;;14.00;100.00;101525.44;5236239;28;20040;-66
2021/07/03 02:59:14;;;;;;;53.50;39.67;;;;;;;14.13;100.00;101531.28;5236312;28;21091;-67
2021/07/03 03:01:45;;;;;;;48.58;38.53;;;;;;;14.04;100.00;101519.75;5234253;28;20049;-67
2021/07/03 03:04:18;;;;;;;49.80;38.28;;;;;;;14.05;100.00;101518.81;5235787;28;20643;-67
2021/07/03 03:06:49;;;;;;;51.55;39.38;;;;;;;14.07;100.00;101506.31;5237077;28;20036;-67
2021/07/03 03:09:20;;;;;;;48.05;37.65;;;;;;;14.03;100.00;101504.91;5234915;28;20029;-67
2021/07/03 03:11:52;;;;;;;49.28;37.97;;;;;;;14.01;100.00;101501.56;5235716;28;20036;-67
2021/07/03 03:14:24;;;;;;;51.60;40.38;;;;;;;14.03;100.00;101506.72;5235072;28;20031;-67
2021/07/03 03:16:55;;;;;;;54.75;38.85;;;;;;;14.05;100.00;101503.00;5235548;28;20433;-66
2021/07/03 03:19:27;;;;;;;53.90;40.13;;;;;;;14.10;100.00;101502.56;5236232;28;20025;-67
2021/07/03 03:21:58;;;;;;;53.42;39.15;;;;;;;14.09;100.00;101504.38;5235400;28;20079;-67
2021/07/03 03:24:29;;;;;;;51.75;40.40;;;;;;;14.08;100.00;101507.97;5234450;28;20483;-66
2021/07/03 03:27:01;;;;;;;52.05;40.10;;;;;;;14.12;100.00;101511.16;5235721;28;20504;-67
2021/07/03 03:29:32;;;;;;;48.53;39.50;;;;;;;14.12;100.00;101503.25;5235053;28;20043;-67
2021/07/03 03:32:04;;;;;;;51.53;39.90;;;;;;;14.13;100.00;101507.59;5233465;28;20083;-66
2021/07/03 03:34:35;;;;;;;52.03;39.08;;;;;;;14.12;100.00;101509.34;5234973;28;20076;-67
2021/07/03 03:37:06;;;;;;;52.08;38.13;;;;;;;14.09;100.00;101507.03;5235448;28;20021;-67
2021/07/03 03:39:38;;;;;;;53.25;41.08;;;;;;;14.13;100.00;101510.22;5235895;28;20051;-67
2021/07/03 03:42:09;;;;;;;48.53;38.45;;;;;;;14.16;100.00;101493.28;5234490;28;20075;-67
2021/07/03 03:44:40;;;;;;;51.05;38.78;;;;;;;14.25;100.00;101505.66;5249409;28;20088;-66
2021/07/03 03:47:12;;;;;;;51.15;39.25;;;;;;;14.27;100.00;101503.69;5236053;28;20052;-66
2021/07/03 03:49:43;;;;;;;52.55;37.92;;;;;;;14.25;100.00;101500.38;5235508;28;20079;-67
2021/07/03 03:52:14;;;;;;;50.25;37.92;;;;;;;14.29;100.00;101494.69;5234237;28;20096;-67
2021/07/03 03:54:46;;;;;;;49.40;38.13;;;;;;;14.36;100.00;101498.44;5233771;28;20029;-66
2021/07/03 03:57:32;;;;;;;50.03;37.63;;;;;;;14.37;100.00;101486.09;5232763;28;20120;-66
2021/07/03 04:00:06;;;;;;;49.25;37.75;;;;;;;14.40;100.00;101493.72;5234777;28;20030;-67
2021/07/03 04:02:37;;;;;;;48.38;36.80;;;;;;;14.36;100.00;101485.25;5229733;28;20118;-67
2021/07/03 04:05:10;;;;;;;47.92;38.10;;;;;;;14.42;100.00;101488.28;5232960;28;20017;-67
2021/07/03 04:07:44;;;;;;;48.70;36.97;;;;;;;14.47;100.00;101494.81;5232935;28;20126;-67
2021/07/03 04:10:16;;;;;;;46.70;36.80;;;;;;;14.50;100.00;101493.72;5233341;28;20025;-67
2021/07/03 04:12:47;;;;;;;49.80;37.40;;;;;;;14.48;100.00;101495.66;5233536;28;20034;-67
2021/07/03 04:15:19;;;;;;;47.45;36.58;;;;;;;14.54;100.00;101508.28;5234393;28;20021;-67
2021/07/03 04:17:50;;;;;;;52.20;39.58;;;;;;;14.56;100.00;101507.19;5234058;28;20116;-67
2021/07/03 04:20:21;;;;;;;47.60;35.88;;;;;;;14.53;100.00;101502.19;5234314;28;20017;-67
2021/07/03 04:22:53;;;;;;;47.88;37.92;;;;;;;14.62;100.00;101508.44;5234864;28;20394;-67
2021/07/03 04:25:25;;;;;;;46.50;35.42;;;;;;;14.61;100.00;101501.50;5233057;28;20034;-67
2021/07/03 04:27:56;;;;;;;44.23;35.87;;;;;;;14.66;100.00;101507.19;5233262;28;20037;-67
2021/07/03 04:30:28;;;;;;;42.63;34.47;;;;;;;14.69;100.00;101517.44;5234178;28;20386;-67
2021/07/03 04:32:59;;;;;;;45.70;35.05;;;;;;;14.72;100.00;101519.81;5234456;28;20029;-67
2021/07/03 04:35:30;;;;;;;47.40;36.00;;;;;;;14.81;100.00;101518.97;5232911;28;20541;-66
2021/07/03 04:38:02;;;;;;;44.33;34.80;;;;;;;14.86;100.00;101523.81;5233647;28;20312;-67
2021/07/03 04:40:34;;;;;;;47.47;34.42;;;;;;;14.92;100.00;101522.41;5234285;28;20017;-67
2021/07/03 04:43:05;;;;;;;48.35;36.35;;;;;;;14.94;100.00;101520.47;5234495;28;20040;-67
2021/07/03 04:45:36;;;;;;;45.70;36.22;;;;;;;14.95;100.00;101517.69;5233282;28;20065;-67
2021/07/03 04:48:07;;;;;;;46.63;37.53;;;;;;;14.99;100.00;101524.34;5232447;28;20021;-67
2021/07/03 04:50:39;;;;;;;49.40;38.05;;;;;;;15.00;100.00;101515.47;5233815;28;20037;-67
2021/07/03 04:53:11;;;;;;;48.50;37.17;;;;;;;14.98;100.00;101512.13;5233067;28;20025;-67
2021/07/03 04:55:42;;;;;;;45.60;35.45;;;;;;;15.07;100.00;101507.78;5234086;28;20033;-67
2021/07/03 04:58:13;;;;;;;47.65;36.47;;;;;;;15.03;100.00;101509.88;5233735;28;20479;-67
2021/07/03 05:00:45;;;;;;;44.58;35.67;;;;;;;15.03;100.00;101504.59;5232857;28;20044;-67
2021/07/03 05:03:16;;;;;;;47.88;37.60;;;;;;;15.13;100.00;101504.59;5233211;28;20044;-67
2021/07/03 05:05:47;;;;;;;45.63;36.63;;;;;;;15.16;100.00;101501.66;5232924;28;20112;-67
2021/07/03 05:08:19;;;;;;;47.47;36.25;;;;;;;15.20;100.00;101500.41;5233646;28;20036;-67
2021/07/03 05:10:50;;;;;;;48.22;37.40;;;;;;;15.24;100.00;101499.13;5233063;28;20021;-67
2021/07/03 05:13:21;;;;;;;49.03;35.72;;;;;;;15.27;100.00;101498.84;5232099;28;20033;-67
2021/07/03 05:15:53;;;;;;;46.50;34.85;;;;;;;15.30;100.00;101498.56;5233449;28;20025;-67
2021/07/03 05:18:24;;;;;;;45.00;36.05;;;;;;;15.33;100.00;101495.63;5233720;28;20025;-66
2021/07/03 05:20:56;;;;;;;44.42;36.40;;;;;;;15.40;100.00;101493.22;5231896;28;20026;-67
2021/07/03 05:23:27;;;;;;;45.67;35.45;;;;;;;15.42;100.00;101496.56;5232560;28;20041;-66
2021/07/03 05:25:59;;;;;;;45.17;35.92;;;;;;;15.45;100.00;101492.78;5233760;28;20051;-67
2021/07/03 05:28:30;;;;;;;40.92;35.35;;;;;;;15.48;100.00;101485.41;5233471;28;20029;-67
2021/07/03 05:31:01;;;;;;;48.80;37.55;;;;;;;15.51;100.00;101476.38;5232443;28;20621;-67
2021/07/03 05:33:33;;;;;;;43.53;34.70;;;;;;;15.62;100.00;101489.38;5232683;28;20455;-67
2021/07/03 05:36:04;;;;;;;43.25;35.05;;;;;;;15.65;100.00;101483.84;5232967;28;20034;-67
2021/07/03 05:38:42;;;;;;;45.60;35.80;;;;;;;15.72;100.00;101484.91;5232941;28;20029;-67
2021/07/03 05:41:15;;;;;;;43.22;33.25;;;;;;;15.85;100.00;101494.28;5231730;28;20035;-67
2021/07/03 05:43:46;;;;;;;45.28;35.15;;;;;;;15.88;100.00;101491.34;5232933;28;20526;-67
2021/07/03 05:46:18;;;;;;;43.45;34.25;;;;;;;15.97;100.00;101491.28;5231522;28;20104;-66
2021/07/03 05:48:49;;;;;;;42.28;34.10;;;;;;;16.07;100.00;101490.41;5231988;28;20539;-67
2021/07/03 05:51:24;;;;;;;40.97;33.97;;;;;;;16.16;100.00;101487.66;5231607;28;20021;-67
2021/07/03 05:53:56;;;;;;;43.88;34.95;;;;;;;16.19;100.00;101482.09;5232975;28;20029;-67
2021/07/03 05:56:28;;;;;;;43.22;34.95;;;;;;;16.34;100.00;101481.56;5231105;28;20062;-67
2021/07/03 05:59:01;;;;;;;38.03;31.73;;;;;;;16.44;100.00;101477.00;5232856;28;20029;-67
2021/07/03 06:01:33;;;;;;;42.47;33.33;;;;;;;16.50;100.00;101479.03;5232913;28;20053;-67
2021/07/03 06:04:04;;;;;;;37.40;30.83;;;;;;;16.64;100.00;101481.13;5232323;28;20030;-67
2021/07/03 06:06:36;;;;;;;37.50;32.67;;;;;;;16.68;100.00;101473.72;5232407;28;20060;-67
2021/07/03 06:09:07;;;;;;;36.03;30.52;;;;;;;16.84;100.00;101475.69;5232181;28;20027;-67
2021/07/03 06:11:38;;;;;;;35.03;30.27;;;;;;;16.88;100.00;101475.19;5231467;28;20029;-67
2021/07/03 06:14:09;;;;;;;36.63;30.20;;;;;;;16.96;99.30;101469.97;5227956;28;20500;-67
2021/07/03 06:16:41;;;;;;;37.55;30.52;;;;;;;17.12;100.00;101473.69;5232372;28;20379;-67
2021/07/03 06:19:12;;;;;;;34.25;29.05;;;;;;;17.20;97.39;101474.56;5236594;28;20080;-67
2021/07/03 06:21:43;;;;;;;30.95;27.48;;;;;;;17.25;97.76;101466.97;5236264;28;20040;-67
2021/07/03 06:24:15;;;;;;;36.17;29.38;;;;;;;17.30;97.57;101463.84;5236637;28;20037;-67
2021/07/03 06:26:46;;;;;;;33.97;28.65;;;;;;;17.46;97.49;101471.88;5235644;28;20113;-67
2021/07/03 06:29:17;;;;;;;31.25;27.90;;;;;;;17.55;98.21;101471.91;5236778;28;20031;-68
2021/07/03 06:31:49;;;;;;;33.63;28.48;;;;;;;17.63;97.68;101471.91;5236153;28;20049;-68
2021/07/03 06:34:20;;;;;;;32.75;29.23;;;;;;;17.74;95.17;101468.97;5236153;28;20545;-67
2021/07/03 06:36:51;;;;;;;31.95;27.80;;;;;;;17.91;95.29;101481.28;5234840;28;20028;-68
2021/07/03 06:39:23;;;;;;;32.80;27.38;;;;;;;17.88;94.54;101464.88;5234538;28;20037;-67
2021/07/03 06:41:54;;;;;;;30.67;26.05;;;;;;;18.08;96.72;101486.63;5236453;28;20029;-68
2021/07/03 06:44:25;;;;;;;28.63;25.63;;;;;;;18.11;94.78;101478.38;5234854;28;20742;-68
2021/07/03 06:46:57;;;;;;;28.88;25.67;;;;;;;18.34;92.78;101486.50;5235366;28;20096;-67
2021/07/03 06:49:28;;;;;;;27.67;24.75;;;;;;;18.35;91.07;101473.06;5234681;28;20028;-67
2021/07/03 06:51:59;;;;;;;37.00;26.70;;;;;;;18.46;92.30;101469.25;5234512;28;20087;-68
2021/07/03 06:54:30;;;;;;;30.00;23.90;;;;;;;18.58;90.72;101470.56;5235244;28;20406;-68
2021/07/03 06:57:03;;;;;;;29.67;23.87;;;;;;;18.58;90.90;101462.59;5234927;28;20327;-68
2021/07/03 06:59:35;;;;;;;30.63;26.37;;;;;;;18.80;89.41;101477.03;5234964;28;20037;-67
2021/07/03 07:02:07;;;;;;;28.10;24.15;;;;;;;18.93;87.98;101471.19;5234630;28;20843;-68
2021/07/03 07:04:39;;;;;;;24.85;21.98;;;;;;;19.03;87.54;101468.38;5232771;28;20067;-68
2021/07/03 07:07:10;;;;;;;24.77;22.17;;;;;;;19.14;87.21;101471.50;5234785;28;20056;-68
2021/07/03 07:09:41;;;;;;;25.07;22.13;;;;;;;19.19;88.33;101469.13;5231124;28;20025;-68
2021/07/03 07:12:13;;;;;;;24.20;21.67;;;;;;;19.39;86.74;101468.72;5233019;28;20033;-68
2021/07/03 07:14:44;;;;;;;23.30;20.83;;;;;;;19.50;85.48;101475.50;5232770;28;20501;-68
2021/07/03 07:17:16;;;;;;;23.03;20.10;;;;;;;19.55;85.69;101476.66;5232174;28;20076;-68
2021/07/03 07:19:47;;;;;;;23.23;20.63;;;;;;;19.58;85.23;101476.28;5235132;28;20054;-68
2021/07/03 07:22:19;;;;;;;23.93;20.23;;;;;;;19.78;84.85;101476.72;5234796;28;20128;-68
2021/07/03 07:24:50;;;;;;;25.27;20.97;;;;;;;19.92;85.42;101483.09;5231509;28;20038;-68
2021/07/03 07:27:21;;;;;;;23.67;20.03;;;;;;;20.06;82.23;101471.72;5233304;28;20033;-68
2021/07/03 07:29:53;;;;;;;21.83;19.27;;;;;;;20.13;82.96;101472.66;5235791;28;20026;-68
2021/07/03 07:32:24;;;;;;;20.43;18.37;;;;;;;20.32;81.34;101463.38;5234755;28;20044;-68
2021/07/03 07:34:55;;;;;;;20.80;18.60;;;;;;;20.33;82.57;101470.34;5234541;28;20314;-68
2021/07/03 07:37:27;;;;;;;20.47;17.03;;;;;;;20.41;82.16;101472.09;5235951;28;20017;-68
2021/07/03 07:39:58;;;;;;;17.90;15.93;;;;;;;20.65;80.35;101471.09;5235113;28;20036;-68
2021/07/03 07:42:30;;;;;;;19.40;15.40;;;;;;;20.74;79.91;101467.34;5235204;28;20035;-68
2021/07/03 07:45:02;;;;;;;17.83;15.77;;;;;;;20.87;79.40;101458.72;5231246;28;20474;-68
2021/07/03 07:47:34;;;;;;;17.80;15.43;;;;;;;20.97;78.68;101461.13;5234196;28;20091;-68
2021/07/03 07:50:06;;;;;;;21.13;17.67;;;;;;;20.98;77.79;101462.75;5233997;28;20108;-68
2021/07/03 07:52:38;;;;;;;17.13;15.40;;;;;;;21.14;76.87;101452.75;5232056;28;20018;-68
2021/07/03 07:55:09;;;;;;;22.47;16.87;;;;;;;21.39;76.90;101449.81;5233914;28;20036;-68
2021/07/03 07:57:41;;;;;;;16.77;15.10;;;;;;;21.50;75.37;101453.84;5234596;28;20025;-68
2021/07/03 08:00:14;;;;;;;17.30;14.93;;;;;;;21.59;75.62;101458.88;5233158;28;20517;-68
2021/07/03 08:02:45;;;;;;;16.65;14.10;;;;;;;21.70;74.71;101438.06;5234172;28;20030;-68
2021/07/03 08:05:17;;;;;;;15.67;13.90;;;;;;;21.90;77.39;101451.63;5234178;28;20490;-68
2021/07/03 08:07:49;;;;;;;16.30;13.75;;;;;;;22.08;74.21;101450.13;5234040;28;20588;-68
2021/07/03 08:10:20;;;;;;;15.80;13.40;;;;;;;22.29;74.56;101451.19;5234256;28;20105;-68
2021/07/03 08:12:51;;;;;;;17.10;13.90;;;;;;;22.43;72.74;101436.09;5233794;28;20028;-68
2021/07/03 08:15:23;;;;;;;14.23;12.40;;;;;;;22.61;71.89;101441.75;5235228;28;20030;-68
2021/07/03 08:17:54;;;;;;;16.13;11.97;;;;;;;22.65;72.54;101442.19;5233779;28;20029;-68
2021/07/03 08:20:26;;;;;;;15.63;11.97;;;;;;;22.55;72.23;101439.88;5234171;28;20057;-68
2021/07/03 08:22:57;;;;;;;14.50;11.37;;;;;;;22.52;72.58;101433.09;5234653;28;20033;-68
2021/07/03 08:25:29;;;;;;;13.93;11.40;;;;;;;22.62;73.41;101429.25;5234341;28;20076;-68
2021/07/03 08:28:00;;;;;;;12.03;10.83;;;;;;;22.66;72.23;101433.19;5233475;28;20445;-68
2021/07/03 08:30:34;;;;;;;13.10;9.77;;;;;;;22.74;71.05;101430.38;5234386;28;20099;-68
2021/07/03 08:33:05;;;;;;;12.55;10.38;;;;;;;22.84;70.65;101433.47;5234501;28;20029;-68
2021/07/03 08:35:36;;;;;;;11.50;10.00;;;;;;;22.92;70.44;101421.84;5235065;28;20057;-68
2021/07/03 08:38:07;;;;;;;9.67;8.67;;;;;;;23.15;70.35;101434.94;5232602;28;20027;-68
2021/07/03 08:40:39;;;;;;;12.57;10.67;;;;;;;23.19;70.63;101422.81;5232045;28;20444;-68
2021/07/03 08:43:10;;;;;;;11.40;10.30;;;;;;;23.19;69.30;101414.81;5234031;28;20029;-68
2021/07/03 08:45:41;;;;;;;11.03;9.33;;;;;;;23.31;70.74;101421.22;5233150;28;20368;-68
2021/07/03 08:48:18;;;;;;;8.83;7.70;;;;;;;23.38;70.04;101416.72;5234460;28;20023;-68
2021/07/03 08:50:49;;;;;;;13.15;9.70;;;;;;;23.40;67.54;101422.69;5234099;28;20253;-68
2021/07/03 08:53:22;;;;;;;10.00;8.03;;;;;;;23.47;67.72;101420.84;5234552;28;20021;-68
2021/07/03 08:55:54;;;;;;;14.13;9.48;;;;;;;23.62;67.05;101415.34;5230141;28;20029;-68
2021/07/03 08:58:25;;;;;;;11.53;8.93;;;;;;;23.62;68.56;101419.88;5232963;28;20070;-68
2021/07/03 09:00:56;;;;;;;9.10;8.10;;;;;;;23.62;67.06;101419.88;5233466;28;20124;-68
2021/07/03 09:03:28;;;;;;;9.10;8.20;;;;;;;23.57;65.09;101422.34;5233833;28;20025;-68
2021/07/03 09:06:04;;;;;;;9.00;7.33;;;;;;;23.71;68.27;101421.34;5233956;28;20069;-68
2021/07/03 09:08:35;;;;;;;7.90;6.70;;;;;;;23.78;66.88;101424.88;5231718;28;20037;-69
2021/07/03 09:11:09;;;;;;;9.97;8.83;;;;;;;23.78;64.89;101420.34;5232787;28;20028;-69
2021/07/03 09:13:43;;;;;;;8.68;7.65;;;;;;;23.81;65.77;101415.63;5230568;28;20028;-69
2021/07/03 09:16:14;;;;;;;9.98;7.28;;;;;;;23.81;65.93;101412.94;5232339;28;20037;-69
2021/07/03 09:18:54;;;;;;;8.20;7.40;;;;;;;23.86;67.39;101408.59;5232488;28;21206;-69
2021/07/03 09:21:25;;;;;;;8.75;7.43;;;;;;;23.75;65.17;101417.22;5231895;28;20025;-69
2021/07/03 09:24:01;;;;;;;8.80;7.90;;;;;;;23.77;64.95;101418.69;5232573;28;20029;-69
2021/07/03 09:26:32;;;;;;;10.90;7.50;;;;;;;23.75;65.52;101419.91;5234329;28;20025;-68
2021/07/03 09:29:09;;;;;;;7.17;6.47;;;;;;;23.79;66.99;101418.50;5233275;28;20037;-69
2021/07/03 09:31:42;;;;;;;8.85;7.15;;;;;;;23.87;64.53;101407.59;5231573;28;20033;-69
2021/07/03 09:34:15;;;;;;;8.75;7.38;;;;;;;23.92;65.71;101412.34;5231949;28;20462;-69
2021/07/03 09:36:46;;;;;;;8.68;7.18;;;;;;;23.92;65.68;101413.16;5232623;28;20426;-68
2021/07/03 09:39:22;;;;;;;9.50;6.63;;;;;;;23.99;65.17;101421.19;5232700;28;20040;-69
2021/07/03 09:41:53;;;;;;;7.60;6.88;;;;;;;24.02;64.18;101413.59;5232357;28;20335;-68
2021/07/03 09:44:25;;;;;;;11.57;7.40;;;;;;;24.14;63.46;101412.97;5232925;28;20029;-68
2021/07/03 09:46:56;;;;;;;9.23;6.40;;;;;;;24.18;62.60;101415.03;5232947;28;20029;-68
2021/07/03 09:49:30;;;;;;;10.20;6.20;;;;;;;24.30;62.92;101414.41;5229641;28;20096;-68
2021/07/03 09:52:02;;;;;;;8.48;6.28;;;;;;;24.18;61.30;101420.38;5231189;28;20044;-68
2021/07/03 09:54:33;;;;;;;7.47;5.90;;;;;;;24.23;62.96;101414.41;5231356;28;20037;-69
2021/07/03 09:57:05;;;;;;;8.13;7.23;;;;;;;24.32;63.60;101415.00;5232888;28;20030;-68
2021/07/03 09:59:36;;;;;;;7.63;6.83;;;;;;;24.10;64.08;101417.91;5232243;28;20039;-68
2021/07/03 10:02:08;;;;;;;8.10;6.33;;;;;;;24.21;63.59;101419.16;5232185;28;20285;-67
2021/07/03 10:04:39;;;;;;;7.50;6.77;;;;;;;24.19;63.96;101418.53;5230777;28;20036;-68
2021/07/03 10:07:27;;;;;;;9.43;6.73;;;;;;;24.24;64.04;101424.91;5233303;28;20037;-69
2021/07/03 10:10:05;;;;;;;7.32;6.53;;;;;;;23.93;63.54;101419.31;5233180;28;20060;-69
2021/07/03 10:12:41;;;;;;;6.80;6.13;;;;;;;23.91;63.80;101408.84;5232330;28;20036;-69
2021/07/03 10:15:15;;;;;;;7.65;6.78;;;;;;;23.87;64.69;101420.97;5233341;28;20029;-68
2021/07/03 10:17:46;;;;;;;6.95;6.28;;;;;;;23.83;64.88;101416.22;5232476;28;20037;-69
2021/07/03 10:20:17;;;;;;;7.63;6.23;;;;;;;23.85;65.12;101425.69;5233089;28;20033;-68
2021/07/03 10:22:54;;;;;;;8.27;6.27;;;;;;;23.82;65.31;101428.78;5233053;28;20067;-69
2021/07/03 10:25:32;;;;;;;8.48;6.72;;;;;;;23.58;66.79;101422.13;5231573;28;20017;-68
2021/07/03 10:28:07;;;;;;;6.78;6.18;;;;;;;23.48;69.54;101419.00;5233530;28;20412;-69
2021/07/03 10:30:49;;;;;;;7.25;6.55;;;;;;;23.42;72.37;101412.63;5231374;28;20502;-68
2021/07/03 10:33:22;;;;;;;6.93;6.22;;;;;;;23.32;73.56;101414.84;5231739;28;20457;-68
2021/07/03 10:35:56;;;;;;;7.07;6.38;;;;;;;23.21;72.50;101407.38;5232146;28;20479;-68
2021/07/03 10:38:30;;;;;;;8.35;6.85;;;;;;;23.16;71.94;101413.34;5232992;28;20112;-69
2021/07/03 10:41:18;;;;;;;8.52;6.95;;;;;;;23.17;73.41;101406.13;5231350;28;20025;-72
2021/07/03 10:43:53;;;;;;;7.10;6.03;;;;;;;23.18;72.91;101407.78;5231509;28;20038;-68
2021/07/03 10:46:29;;;;;;;9.23;6.53;;;;;;;23.24;72.34;101410.50;5232202;28;20771;-68
2021/07/03 10:49:06;;;;;;;6.85;6.15;;;;;;;23.26;70.29;101405.78;5232724;28;20494;-70
2021/07/03 10:51:41;;;;;;;7.25;6.28;;;;;;;23.21;71.87;101405.53;5231950;28;20398;-70
2021/07/03 10:54:25;;;;;;;8.57;6.60;;;;;;;23.25;70.22;101404.09;5230495;28;20556;-68
2021/07/03 10:57:03;;;;;;;7.00;6.40;;;;;;;23.35;69.94;101392.22;5231984;28;20049;-68
2021/07/03 10:59:38;;;;;;;7.88;6.97;;;;;;;23.47;69.68;101387.94;5231264;28;20021;-68
2021/07/03 11:02:14;;;;;;;7.20;6.47;;;;;;;23.48;69.20;101386.91;5231564;28;20033;-68
2021/07/03 11:04:45;;;;;;;7.43;6.63;;;;;;;23.49;68.91;101378.69;5235032;28;20045;-68
2021/07/03 11:07:30;;;;;;;9.67;7.03;;;;;;;23.67;68.51;101378.13;5235437;28;20037;-69
2021/07/03 11:10:16;;;;;;;7.47;6.78;;;;;;;23.68;68.27;101377.13;5234989;28;20659;-69
2021/07/03 11:12:57;;;;;;;8.25;6.60;;;;;;;23.77;69.23;101369.72;5250512;28;20413;-68
2021/07/03 11:15:28;;;;;;;7.95;7.15;;;;;;;23.82;68.66;101358.38;5235014;28;20029;-68
2021/07/03 11:18:01;;;;;;;8.90;7.30;;;;;;;23.90;68.64;101360.84;5233168;28;20032;-69
2021/07/03 11:20:35;;;;;;;8.18;7.18;;;;;;;24.00;67.47;101354.06;5233839;28;20031;-70
2021/07/03 11:23:07;;;;;;;8.05;7.13;;;;;;;23.97;67.60;101357.16;5234646;28;20018;-67
2021/07/03 11:25:43;;;;;;;8.93;7.00;;;;;;;24.16;67.18;101352.81;5235616;28;20045;-68
2021/07/03 11:28:20;;;;;;;8.40;7.10;;;;;;;24.40;67.38;101354.06;5232887;28;20033;-68
2021/07/03 11:30:58;;;;;;;7.53;6.60;;;;;;;24.66;67.47;101346.97;5249505;28;20104;-68
2021/07/03 11:33:32;;;;;;;7.80;7.00;;;;;;;24.79;66.35;101346.94;5236145;28;20505;-70